sensor_id;sensor_type;location;lat;lon;timestamp;P1;durP1;ratioP1;P2;durP2;ratioP2
12114;SDS011;6121;49.810;6.418;2022-12-11T00:01:59;2.10;;;2.00;;
12114;SDS011;6121;49.810;6.418;2022-12-11T00:04:25;1.83;;;1.73;;
12114;SDS011;6121;49.810;6.418;2022-12-11T00:06:51;1.90;;;1.80;;
12114;SDS011;6121;49.810;6.418;2022-12-11T00:09:17;1.83;;;1.73;;
12114;SDS011;6121;49.810;6.418;2022-12-11T00:11:44;2.00;;;1.90;;
12114;SDS011;6121;49.810;6.418;2022-12-11T00:14:10;2.05;;;1.80;;
12114;SDS011;6121;49.810;6.418;2022-12-11T00:16:35;2.00;;;1.90;;
12114;SDS011;6121;49.810;6.418;2022-12-11T00:19:01;2.40;;;2.20;;
12114;SDS011;6121;49.810;6.418;2022-12-11T00:21:26;1.95;;;1.85;;
12114;SDS011;6121;49.810;6.418;2022-12-11T00:23:52;2.30;;;2.20;;
12114;SDS011;6121;49.810;6.418;2022-12-11T00:26:17;2.37;;;2.17;;
12114;SDS011;6121;49.810;6.418;2022-12-11T00:28:44;2.25;;;2.15;;
12114;SDS011;6121;49.810;6.418;2022-12-11T00:31:12;2.28;;;2.17;;
12114;SDS011;6121;49.810;6.418;2022-12-11T00:33:40;2.37;;;2.17;;
12114;SDS011;6121;49.810;6.418;2022-12-11T00:36:13;2.17;;;2.05;;
12114;SDS011;6121;49.810;6.418;2022-12-11T00:38:41;2.70;;;2.50;;
12114;SDS011;6121;49.810;6.418;2022-12-11T00:41:07;2.38;;;2.17;;
12114;SDS011;6121;49.810;6.418;2022-12-11T00:43:33;2.17;;;2.08;;
12114;SDS011;6121;49.810;6.418;2022-12-11T00:45:59;2.50;;;2.23;;
12114;SDS011;6121;49.810;6.418;2022-12-11T00:48:24;2.75;;;2.17;;
12114;SDS011;6121;49.810;6.418;2022-12-11T00:50:50;2.00;;;1.90;;
12114;SDS011;6121;49.810;6.418;2022-12-11T00:53:15;2.20;;;2.10;;
12114;SDS011;6121;49.810;6.418;2022-12-11T00:55:41;2.33;;;2.17;;
12114;SDS011;6121;49.810;6.418;2022-12-11T00:58:07;2.13;;;1.92;;
12114;SDS011;6121;49.810;6.418;2022-12-11T01:00:34;2.10;;;2.00;;
12114;SDS011;6121;49.810;6.418;2022-12-11T01:03:00;2.33;;;2.15;;
12114;SDS011;6121;49.810;6.418;2022-12-11T01:05:25;1.90;;;1.80;;
12114;SDS011;6121;49.810;6.418;2022-12-11T01:07:51;2.33;;;2.15;;
12114;SDS011;6121;49.810;6.418;2022-12-11T01:10:17;3.63;;;2.22;;
12114;SDS011;6121;49.810;6.418;2022-12-11T01:12:59;2.22;;;2.13;;
12114;SDS011;6121;49.810;6.418;2022-12-11T01:15:31;1.95;;;1.85;;
12114;SDS011;6121;49.810;6.418;2022-12-11T01:18:08;1.97;;;1.87;;
12114;SDS011;6121;49.810;6.418;2022-12-11T01:20:36;2.30;;;2.20;;
12114;SDS011;6121;49.810;6.418;2022-12-11T01:23:04;2.33;;;2.17;;
12114;SDS011;6121;49.810;6.418;2022-12-11T01:25:30;2.23;;;2.13;;
12114;SDS011;6121;49.810;6.418;2022-12-11T01:27:57;2.17;;;1.98;;
12114;SDS011;6121;49.810;6.418;2022-12-11T01:30:23;2.15;;;2.05;;
12114;SDS011;6121;49.810;6.418;2022-12-11T01:32:49;3.15;;;2.95;;
12114;SDS011;6121;49.810;6.418;2022-12-11T01:35:16;2.30;;;2.10;;
12114;SDS011;6121;49.810;6.418;2022-12-11T01:37:42;2.17;;;2.08;;
12114;SDS011;6121;49.810;6.418;2022-12-11T01:40:08;2.47;;;1.98;;
12114;SDS011;6121;49.810;6.418;2022-12-11T01:42:35;4.03;;;3.72;;
12114;SDS011;6121;49.810;6.418;2022-12-11T01:45:47;2.03;;;1.92;;
12114;SDS011;6121;49.810;6.418;2022-12-11T01:50:28;2.10;;;1.90;;
12114;SDS011;6121;49.810;6.418;2022-12-11T01:52:57;2.20;;;2.10;;
12114;SDS011;6121;49.810;6.418;2022-12-11T01:55:23;1.90;;;1.80;;
12114;SDS011;6121;49.810;6.418;2022-12-11T01:57:49;2.22;;;2.13;;
12114;SDS011;6121;49.810;6.418;2022-12-11T02:00:16;1.95;;;1.85;;
12114;SDS011;6121;49.810;6.418;2022-12-11T02:02:42;2.90;;;2.80;;
12114;SDS011;6121;49.810;6.418;2022-12-11T02:05:08;2.00;;;1.90;;
12114;SDS011;6121;49.810;6.418;2022-12-11T02:07:38;2.10;;;2.00;;
12114;SDS011;6121;49.810;6.418;2022-12-11T02:10:09;2.05;;;1.92;;
12114;SDS011;6121;49.810;6.418;2022-12-11T02:12:41;2.20;;;2.10;;
12114;SDS011;6121;49.810;6.418;2022-12-11T02:15:29;2.10;;;2.00;;
12114;SDS011;6121;49.810;6.418;2022-12-11T02:20:44;2.10;;;2.00;;
12114;SDS011;6121;49.810;6.418;2022-12-11T02:26:01;2.10;;;2.00;;
12114;SDS011;6121;49.810;6.418;2022-12-11T02:31:15;3.15;;;2.38;;
12114;SDS011;6121;49.810;6.418;2022-12-11T02:34:07;2.17;;;2.07;;
12114;SDS011;6121;49.810;6.418;2022-12-11T02:36:36;2.00;;;1.90;;
12114;SDS011;6121;49.810;6.418;2022-12-11T02:39:05;2.42;;;2.22;;
12114;SDS011;6121;49.810;6.418;2022-12-11T02:41:33;2.03;;;1.85;;
12114;SDS011;6121;49.810;6.418;2022-12-11T02:44:00;2.10;;;2.00;;
12114;SDS011;6121;49.810;6.418;2022-12-11T02:46:27;2.00;;;1.77;;
12114;SDS011;6121;49.810;6.418;2022-12-11T02:48:55;2.72;;;2.53;;
12114;SDS011;6121;49.810;6.418;2022-12-11T02:51:25;2.03;;;1.92;;
12114;SDS011;6121;49.810;6.418;2022-12-11T02:53:55;1.90;;;1.80;;
12114;SDS011;6121;49.810;6.418;2022-12-11T02:56:25;2.20;;;2.00;;
12114;SDS011;6121;49.810;6.418;2022-12-11T02:58:59;2.30;;;2.20;;
12114;SDS011;6121;49.810;6.418;2022-12-11T03:01:30;2.17;;;2.08;;
12114;SDS011;6121;49.810;6.418;2022-12-11T03:03:55;2.03;;;1.92;;
12114;SDS011;6121;49.810;6.418;2022-12-11T03:06:23;1.67;;;1.58;;
12114;SDS011;6121;49.810;6.418;2022-12-11T03:08:53;2.27;;;2.17;;
12114;SDS011;6121;49.810;6.418;2022-12-11T03:11:18;2.17;;;1.98;;
12114;SDS011;6121;49.810;6.418;2022-12-11T03:13:44;2.00;;;1.90;;
12114;SDS011;6121;49.810;6.418;2022-12-11T03:18:44;2.00;;;1.90;;
12114;SDS011;6121;49.810;6.418;2022-12-11T03:21:25;1.90;;;1.80;;
12114;SDS011;6121;49.810;6.418;2022-12-11T03:26:53;1.65;;;1.55;;
12114;SDS011;6121;49.810;6.418;2022-12-11T03:29:23;1.88;;;1.77;;
12114;SDS011;6121;49.810;6.418;2022-12-11T03:31:57;1.92;;;1.83;;
12114;SDS011;6121;49.810;6.418;2022-12-11T03:37:09;1.67;;;1.58;;
12114;SDS011;6121;49.810;6.418;2022-12-11T03:39:38;2.17;;;1.98;;
12114;SDS011;6121;49.810;6.418;2022-12-11T03:42:09;2.00;;;1.90;;
12114;SDS011;6121;49.810;6.418;2022-12-11T03:44:37;1.77;;;1.67;;
12114;SDS011;6121;49.810;6.418;2022-12-11T03:47:04;1.83;;;1.73;;
12114;SDS011;6121;49.810;6.418;2022-12-11T03:49:37;1.70;;;1.60;;
12114;SDS011;6121;49.810;6.418;2022-12-11T03:52:04;2.10;;;1.95;;
12114;SDS011;6121;49.810;6.418;2022-12-11T03:54:31;1.70;;;1.60;;
12114;SDS011;6121;49.810;6.418;2022-12-11T03:56:59;2.10;;;2.00;;
12114;SDS011;6121;49.810;6.418;2022-12-11T03:59:27;1.90;;;1.80;;
12114;SDS011;6121;49.810;6.418;2022-12-11T04:01:52;1.88;;;1.77;;
12114;SDS011;6121;49.810;6.418;2022-12-11T04:04:18;1.77;;;1.67;;
12114;SDS011;6121;49.810;6.418;2022-12-11T04:06:44;2.05;;;1.95;;
12114;SDS011;6121;49.810;6.418;2022-12-11T04:09:10;1.87;;;1.77;;
12114;SDS011;6121;49.810;6.418;2022-12-11T04:11:35;1.95;;;1.85;;
12114;SDS011;6121;49.810;6.418;2022-12-11T04:14:02;2.10;;;2.00;;
12114;SDS011;6121;49.810;6.418;2022-12-11T04:16:48;1.95;;;1.85;;
12114;SDS011;6121;49.810;6.418;2022-12-11T04:19:14;2.30;;;1.70;;
12114;SDS011;6121;49.810;6.418;2022-12-11T04:21:58;2.10;;;2.00;;
12114;SDS011;6121;49.810;6.418;2022-12-11T04:24:42;1.90;;;1.80;;
12114;SDS011;6121;49.810;6.418;2022-12-11T04:27:07;3.00;;;2.07;;
12114;SDS011;6121;49.810;6.418;2022-12-11T04:29:33;1.70;;;1.60;;
12114;SDS011;6121;49.810;6.418;2022-12-11T04:31:58;1.92;;;1.83;;
12114;SDS011;6121;49.810;6.418;2022-12-11T04:34:24;2.20;;;1.75;;
12114;SDS011;6121;49.810;6.418;2022-12-11T04:36:50;2.10;;;2.00;;
12114;SDS011;6121;49.810;6.418;2022-12-11T04:39:15;2.07;;;1.87;;
12114;SDS011;6121;49.810;6.418;2022-12-11T04:41:41;1.88;;;1.77;;
12114;SDS011;6121;49.810;6.418;2022-12-11T04:44:07;1.97;;;1.87;;
12114;SDS011;6121;49.810;6.418;2022-12-11T04:46:33;1.83;;;1.73;;
12114;SDS011;6121;49.810;6.418;2022-12-11T04:48:58;2.27;;;2.17;;
12114;SDS011;6121;49.810;6.418;2022-12-11T04:51:25;1.95;;;1.85;;
12114;SDS011;6121;49.810;6.418;2022-12-11T04:53:52;2.70;;;2.10;;
12114;SDS011;6121;49.810;6.418;2022-12-11T04:56:18;1.80;;;1.70;;
12114;SDS011;6121;49.810;6.418;2022-12-11T04:58:44;1.77;;;1.67;;
12114;SDS011;6121;49.810;6.418;2022-12-11T05:01:11;2.05;;;1.95;;
12114;SDS011;6121;49.810;6.418;2022-12-11T05:03:42;1.75;;;1.65;;
12114;SDS011;6121;49.810;6.418;2022-12-11T05:06:08;2.80;;;2.00;;
12114;SDS011;6121;49.810;6.418;2022-12-11T05:08:35;1.50;;;1.40;;
12114;SDS011;6121;49.810;6.418;2022-12-11T05:11:04;2.17;;;1.90;;
12114;SDS011;6121;49.810;6.418;2022-12-11T05:13:31;1.50;;;1.50;;
12114;SDS011;6121;49.810;6.418;2022-12-11T05:15:57;1.85;;;1.75;;
12114;SDS011;6121;49.810;6.418;2022-12-11T05:18:23;1.67;;;1.58;;
12114;SDS011;6121;49.810;6.418;2022-12-11T05:20:56;2.92;;;1.92;;
12114;SDS011;6121;49.810;6.418;2022-12-11T05:23:22;1.67;;;1.58;;
12114;SDS011;6121;49.810;6.418;2022-12-11T05:25:52;1.90;;;1.77;;
12114;SDS011;6121;49.810;6.418;2022-12-11T05:28:20;1.70;;;1.60;;
12114;SDS011;6121;49.810;6.418;2022-12-11T05:30:46;1.98;;;1.88;;
12114;SDS011;6121;49.810;6.418;2022-12-11T05:33:12;2.95;;;2.15;;
12114;SDS011;6121;49.810;6.418;2022-12-11T05:35:38;1.87;;;1.77;;
12114;SDS011;6121;49.810;6.418;2022-12-11T05:38:03;1.90;;;1.80;;
12114;SDS011;6121;49.810;6.418;2022-12-11T05:40:29;1.90;;;1.80;;
12114;SDS011;6121;49.810;6.418;2022-12-11T05:42:54;1.80;;;1.70;;
12114;SDS011;6121;49.810;6.418;2022-12-11T05:45:20;1.83;;;1.73;;
12114;SDS011;6121;49.810;6.418;2022-12-11T05:47:46;2.90;;;2.53;;
12114;SDS011;6121;49.810;6.418;2022-12-11T05:50:11;1.80;;;1.70;;
12114;SDS011;6121;49.810;6.418;2022-12-11T05:52:37;2.40;;;2.00;;
12114;SDS011;6121;49.810;6.418;2022-12-11T05:55:02;2.17;;;1.97;;
12114;SDS011;6121;49.810;6.418;2022-12-11T05:57:28;1.88;;;1.77;;
12114;SDS011;6121;49.810;6.418;2022-12-11T05:59:54;5.87;;;2.90;;
12114;SDS011;6121;49.810;6.418;2022-12-11T06:02:19;1.80;;;1.70;;
12114;SDS011;6121;49.810;6.418;2022-12-11T06:04:45;3.00;;;1.93;;
12114;SDS011;6121;49.810;6.418;2022-12-11T06:07:10;1.90;;;1.77;;
12114;SDS011;6121;49.810;6.418;2022-12-11T06:09:36;1.70;;;1.60;;
12114;SDS011;6121;49.810;6.418;2022-12-11T06:12:02;2.90;;;2.17;;
12114;SDS011;6121;49.810;6.418;2022-12-11T06:14:27;1.83;;;1.73;;
12114;SDS011;6121;49.810;6.418;2022-12-11T06:16:53;2.15;;;1.92;;
12114;SDS011;6121;49.810;6.418;2022-12-11T06:19:18;1.77;;;1.67;;
12114;SDS011;6121;49.810;6.418;2022-12-11T06:21:44;1.93;;;1.83;;
12114;SDS011;6121;49.810;6.418;2022-12-11T06:24:12;1.90;;;1.80;;
12114;SDS011;6121;49.810;6.418;2022-12-11T06:26:38;1.70;;;1.60;;
12114;SDS011;6121;49.810;6.418;2022-12-11T06:29:04;2.13;;;1.97;;
12114;SDS011;6121;49.810;6.418;2022-12-11T06:31:30;1.77;;;1.67;;
12114;SDS011;6121;49.810;6.418;2022-12-11T06:33:55;1.80;;;1.70;;
12114;SDS011;6121;49.810;6.418;2022-12-11T06:36:22;1.80;;;1.70;;
12114;SDS011;6121;49.810;6.418;2022-12-11T06:38:48;2.10;;;1.90;;
12114;SDS011;6121;49.810;6.418;2022-12-11T06:41:15;2.00;;;1.90;;
12114;SDS011;6121;49.810;6.418;2022-12-11T06:43:41;3.13;;;2.05;;
12114;SDS011;6121;49.810;6.418;2022-12-11T06:46:10;2.28;;;2.08;;
12114;SDS011;6121;49.810;6.418;2022-12-11T06:48:40;3.03;;;2.13;;
12114;SDS011;6121;49.810;6.418;2022-12-11T06:51:07;4.28;;;2.42;;
12114;SDS011;6121;49.810;6.418;2022-12-11T06:53:35;1.73;;;1.63;;
12114;SDS011;6121;49.810;6.418;2022-12-11T06:56:01;2.90;;;2.07;;
12114;SDS011;6121;49.810;6.418;2022-12-11T06:58:38;3.10;;;2.05;;
12114;SDS011;6121;49.810;6.418;2022-12-11T07:01:11;4.53;;;2.50;;
12114;SDS011;6121;49.810;6.418;2022-12-11T07:03:42;3.50;;;2.10;;
12114;SDS011;6121;49.810;6.418;2022-12-11T07:06:08;4.35;;;2.17;;
12114;SDS011;6121;49.810;6.418;2022-12-11T07:08:34;1.77;;;1.67;;
12114;SDS011;6121;49.810;6.418;2022-12-11T07:11:03;2.17;;;1.98;;
12114;SDS011;6121;49.810;6.418;2022-12-11T07:13:30;1.83;;;1.73;;
12114;SDS011;6121;49.810;6.418;2022-12-11T07:15:57;1.90;;;1.80;;
12114;SDS011;6121;49.810;6.418;2022-12-11T07:18:23;2.55;;;1.98;;
12114;SDS011;6121;49.810;6.418;2022-12-11T07:20:49;3.13;;;1.90;;
12114;SDS011;6121;49.810;6.418;2022-12-11T07:23:14;2.30;;;2.10;;
12114;SDS011;6121;49.810;6.418;2022-12-11T07:25:40;4.97;;;2.33;;
12114;SDS011;6121;49.810;6.418;2022-12-11T07:28:06;2.30;;;2.20;;
12114;SDS011;6121;49.810;6.418;2022-12-11T07:30:31;2.47;;;2.00;;
12114;SDS011;6121;49.810;6.418;2022-12-11T07:32:57;2.38;;;2.17;;
12114;SDS011;6121;49.810;6.418;2022-12-11T07:35:22;2.27;;;2.07;;
12114;SDS011;6121;49.810;6.418;2022-12-11T07:37:48;4.30;;;2.37;;
12114;SDS011;6121;49.810;6.418;2022-12-11T07:40:13;2.30;;;2.10;;
12114;SDS011;6121;49.810;6.418;2022-12-11T07:42:39;2.22;;;2.10;;
12114;SDS011;6121;49.810;6.418;2022-12-11T07:45:05;3.03;;;2.13;;
12114;SDS011;6121;49.810;6.418;2022-12-11T07:47:31;2.42;;;2.33;;
12114;SDS011;6121;49.810;6.418;2022-12-11T07:49:57;2.30;;;2.10;;
12114;SDS011;6121;49.810;6.418;2022-12-11T07:52:23;7.88;;;2.78;;
12114;SDS011;6121;49.810;6.418;2022-12-11T07:54:49;3.58;;;2.17;;
12114;SDS011;6121;49.810;6.418;2022-12-11T07:57:14;2.33;;;2.07;;
12114;SDS011;6121;49.810;6.418;2022-12-11T07:59:40;2.85;;;2.50;;
12114;SDS011;6121;49.810;6.418;2022-12-11T08:02:08;4.57;;;2.40;;
12114;SDS011;6121;49.810;6.418;2022-12-11T08:04:34;3.00;;;1.90;;
12114;SDS011;6121;49.810;6.418;2022-12-11T08:07:00;4.13;;;2.47;;
12114;SDS011;6121;49.810;6.418;2022-12-11T08:09:25;2.03;;;1.93;;
12114;SDS011;6121;49.810;6.418;2022-12-11T08:11:51;2.30;;;1.92;;
12114;SDS011;6121;49.810;6.418;2022-12-11T08:14:17;2.05;;;1.95;;
12114;SDS011;6121;49.810;6.418;2022-12-11T08:16:43;2.20;;;2.00;;
12114;SDS011;6121;49.810;6.418;2022-12-11T08:19:12;2.67;;;2.37;;
12114;SDS011;6121;49.810;6.418;2022-12-11T08:21:38;2.33;;;2.08;;
12114;SDS011;6121;49.810;6.418;2022-12-11T08:24:04;2.40;;;2.20;;
12114;SDS011;6121;49.810;6.418;2022-12-11T08:26:30;3.00;;;2.10;;
12114;SDS011;6121;49.810;6.418;2022-12-11T08:28:56;5.72;;;2.78;;
12114;SDS011;6121;49.810;6.418;2022-12-11T08:31:22;2.70;;;2.47;;
12114;SDS011;6121;49.810;6.418;2022-12-11T08:33:48;4.88;;;2.38;;
12114;SDS011;6121;49.810;6.418;2022-12-11T08:36:16;4.72;;;3.28;;
12114;SDS011;6121;49.810;6.418;2022-12-11T08:38:43;4.57;;;2.95;;
12114;SDS011;6121;49.810;6.418;2022-12-11T08:41:11;4.50;;;3.30;;
12114;SDS011;6121;49.810;6.418;2022-12-11T08:43:45;4.67;;;2.97;;
12114;SDS011;6121;49.810;6.418;2022-12-11T08:46:12;5.35;;;3.80;;
12114;SDS011;6121;49.810;6.418;2022-12-11T08:48:39;6.97;;;3.60;;
12114;SDS011;6121;49.810;6.418;2022-12-11T08:51:07;8.80;;;4.22;;
12114;SDS011;6121;49.810;6.418;2022-12-11T08:53:36;3.28;;;2.83;;
12114;SDS011;6121;49.810;6.418;2022-12-11T08:56:03;5.10;;;3.55;;
12114;SDS011;6121;49.810;6.418;2022-12-11T08:58:39;5.50;;;3.53;;
12114;SDS011;6121;49.810;6.418;2022-12-11T09:01:05;7.50;;;4.68;;
12114;SDS011;6121;49.810;6.418;2022-12-11T09:03:33;3.47;;;2.73;;
12114;SDS011;6121;49.810;6.418;2022-12-11T09:05:59;5.07;;;3.38;;
12114;SDS011;6121;49.810;6.418;2022-12-11T09:08:27;5.63;;;3.75;;
12114;SDS011;6121;49.810;6.418;2022-12-11T09:10:53;4.13;;;3.03;;
12114;SDS011;6121;49.810;6.418;2022-12-11T09:13:18;4.57;;;3.40;;
12114;SDS011;6121;49.810;6.418;2022-12-11T09:15:44;6.87;;;3.57;;
12114;SDS011;6121;49.810;6.418;2022-12-11T09:18:10;6.40;;;3.50;;
12114;SDS011;6121;49.810;6.418;2022-12-11T09:20:35;9.05;;;3.60;;
12114;SDS011;6121;49.810;6.418;2022-12-11T09:23:01;9.32;;;4.32;;
12114;SDS011;6121;49.810;6.418;2022-12-11T09:25:27;5.73;;;2.63;;
12114;SDS011;6121;49.810;6.418;2022-12-11T09:27:52;5.32;;;2.58;;
12114;SDS011;6121;49.810;6.418;2022-12-11T09:30:18;6.85;;;2.70;;
12114;SDS011;6121;49.810;6.418;2022-12-11T09:32:43;3.47;;;2.80;;
12114;SDS011;6121;49.810;6.418;2022-12-11T09:35:09;2.57;;;2.20;;
12114;SDS011;6121;49.810;6.418;2022-12-11T09:37:35;8.00;;;2.80;;
12114;SDS011;6121;49.810;6.418;2022-12-11T09:40:00;5.33;;;2.30;;
12114;SDS011;6121;49.810;6.418;2022-12-11T09:45:01;5.20;;;2.60;;
12114;SDS011;6121;49.810;6.418;2022-12-11T09:47:39;2.87;;;2.63;;
12114;SDS011;6121;49.810;6.418;2022-12-11T09:55:22;4.03;;;2.42;;
12114;SDS011;6121;49.810;6.418;2022-12-11T10:00:46;4.35;;;2.20;;
12114;SDS011;6121;49.810;6.418;2022-12-11T10:05:50;3.33;;;2.47;;
12114;SDS011;6121;49.810;6.418;2022-12-11T10:14:07;4.38;;;2.42;;
12114;SDS011;6121;49.810;6.418;2022-12-11T10:16:44;4.00;;;2.60;;
12114;SDS011;6121;49.810;6.418;2022-12-11T10:19:16;4.32;;;3.10;;
12114;SDS011;6121;49.810;6.418;2022-12-11T10:21:46;4.65;;;2.58;;
12114;SDS011;6121;49.810;6.418;2022-12-11T10:27:39;4.15;;;2.67;;
12114;SDS011;6121;49.810;6.418;2022-12-11T10:35:09;2.90;;;2.45;;
12114;SDS011;6121;49.810;6.418;2022-12-11T10:37:51;4.07;;;2.50;;
12114;SDS011;6121;49.810;6.418;2022-12-11T10:40:26;2.67;;;2.38;;
12114;SDS011;6121;49.810;6.418;2022-12-11T10:42:56;3.75;;;3.53;;
12114;SDS011;6121;49.810;6.418;2022-12-11T10:45:21;3.73;;;3.43;;
12114;SDS011;6121;49.810;6.418;2022-12-11T10:47:47;7.13;;;4.13;;
12114;SDS011;6121;49.810;6.418;2022-12-11T10:50:23;4.55;;;3.78;;
12114;SDS011;6121;49.810;6.418;2022-12-11T10:52:50;6.03;;;3.92;;
12114;SDS011;6121;49.810;6.418;2022-12-11T10:55:20;4.75;;;3.70;;
12114;SDS011;6121;49.810;6.418;2022-12-11T10:57:53;8.88;;;4.18;;
12114;SDS011;6121;49.810;6.418;2022-12-11T11:02:55;7.55;;;4.50;;
12114;SDS011;6121;49.810;6.418;2022-12-11T11:05:29;7.93;;;4.40;;
12114;SDS011;6121;49.810;6.418;2022-12-11T11:08:03;6.18;;;3.33;;
12114;SDS011;6121;49.810;6.418;2022-12-11T11:10:59;2.90;;;2.80;;
12114;SDS011;6121;49.810;6.418;2022-12-11T11:13:26;3.35;;;3.10;;
12114;SDS011;6121;49.810;6.418;2022-12-11T11:16:05;3.37;;;3.17;;
12114;SDS011;6121;49.810;6.418;2022-12-11T11:18:36;4.60;;;3.80;;
12114;SDS011;6121;49.810;6.418;2022-12-11T11:21:04;4.75;;;4.45;;
12114;SDS011;6121;49.810;6.418;2022-12-11T11:23:31;3.20;;;3.00;;
12114;SDS011;6121;49.810;6.418;2022-12-11T11:25:59;4.90;;;3.38;;
12114;SDS011;6121;49.810;6.418;2022-12-11T11:30:55;4.85;;;4.55;;
12114;SDS011;6121;49.810;6.418;2022-12-11T11:33:23;5.15;;;4.05;;
12114;SDS011;6121;49.810;6.418;2022-12-11T11:35:56;4.47;;;4.17;;
12114;SDS011;6121;49.810;6.418;2022-12-11T11:38:30;4.20;;;3.97;;
12114;SDS011;6121;49.810;6.418;2022-12-11T11:43:52;6.82;;;4.00;;
12114;SDS011;6121;49.810;6.418;2022-12-11T11:46:32;5.97;;;3.92;;
12114;SDS011;6121;49.810;6.418;2022-12-11T11:51:40;5.80;;;4.43;;
12114;SDS011;6121;49.810;6.418;2022-12-11T11:54:17;3.95;;;3.45;;
12114;SDS011;6121;49.810;6.418;2022-12-11T11:56:51;3.70;;;3.30;;
12114;SDS011;6121;49.810;6.418;2022-12-11T11:59:38;6.40;;;4.00;;
12114;SDS011;6121;49.810;6.418;2022-12-11T12:02:12;4.47;;;4.07;;
12114;SDS011;6121;49.810;6.418;2022-12-11T12:04:40;3.63;;;3.33;;
12114;SDS011;6121;49.810;6.418;2022-12-11T12:07:18;4.43;;;3.20;;
12114;SDS011;6121;49.810;6.418;2022-12-11T12:12:56;3.58;;;3.30;;
12114;SDS011;6121;49.810;6.418;2022-12-11T12:15:36;3.60;;;3.33;;
12114;SDS011;6121;49.810;6.418;2022-12-11T12:20:59;4.68;;;4.43;;
12114;SDS011;6121;49.810;6.418;2022-12-11T12:36:53;4.20;;;3.42;;
12114;SDS011;6121;49.810;6.418;2022-12-11T12:39:40;3.13;;;2.92;;
12114;SDS011;6121;49.810;6.418;2022-12-11T12:42:42;3.72;;;3.50;;
12114;SDS011;6121;49.810;6.418;2022-12-11T12:45:17;5.47;;;3.63;;
12114;SDS011;6121;49.810;6.418;2022-12-11T12:48:12;4.60;;;3.60;;
12114;SDS011;6121;49.810;6.418;2022-12-11T12:50:42;3.97;;;3.67;;
12114;SDS011;6121;49.810;6.418;2022-12-11T12:53:22;3.20;;;3.00;;
12114;SDS011;6121;49.810;6.418;2022-12-11T12:55:50;2.95;;;2.75;;
12114;SDS011;6121;49.810;6.418;2022-12-11T12:58:24;5.65;;;4.47;;
12114;SDS011;6121;49.810;6.418;2022-12-11T13:00:51;6.03;;;4.55;;
12114;SDS011;6121;49.810;6.418;2022-12-11T13:03:21;8.23;;;4.10;;
12114;SDS011;6121;49.810;6.418;2022-12-11T13:06:14;26.33;;;6.57;;
12114;SDS011;6121;49.810;6.418;2022-12-11T13:08:45;3.45;;;3.25;;
12114;SDS011;6121;49.810;6.418;2022-12-11T13:11:12;5.13;;;4.72;;
12114;SDS011;6121;49.810;6.418;2022-12-11T13:13:42;3.55;;;3.35;;
12114;SDS011;6121;49.810;6.418;2022-12-11T13:18:39;3.80;;;3.40;;
12114;SDS011;6121;49.810;6.418;2022-12-11T13:24:44;3.50;;;3.30;;
12114;SDS011;6121;49.810;6.418;2022-12-11T13:26:44;4.13;;;3.25;;
12114;SDS011;6121;49.810;6.418;2022-12-11T13:32:21;3.17;;;2.38;;
12114;SDS011;6121;49.810;6.418;2022-12-11T13:34:51;2.90;;;2.03;;
12114;SDS011;6121;49.810;6.418;2022-12-11T13:37:30;2.17;;;2.08;;
12114;SDS011;6121;49.810;6.418;2022-12-11T13:40:02;2.47;;;2.17;;
12114;SDS011;6121;49.810;6.418;2022-12-11T13:42:33;3.20;;;2.50;;
12114;SDS011;6121;49.810;6.418;2022-12-11T13:45:04;2.65;;;2.00;;
12114;SDS011;6121;49.810;6.418;2022-12-11T13:47:32;3.00;;;2.67;;
12114;SDS011;6121;49.810;6.418;2022-12-11T13:50:14;2.85;;;2.20;;
12114;SDS011;6121;49.810;6.418;2022-12-11T13:52:55;2.45;;;2.08;;
12114;SDS011;6121;49.810;6.418;2022-12-11T13:55:26;3.10;;;2.30;;
12114;SDS011;6121;49.810;6.418;2022-12-11T13:57:54;3.75;;;2.15;;
12114;SDS011;6121;49.810;6.418;2022-12-11T14:00:21;5.30;;;2.92;;
12114;SDS011;6121;49.810;6.418;2022-12-11T14:02:50;2.90;;;2.67;;
12114;SDS011;6121;49.810;6.418;2022-12-11T14:05:17;2.53;;;2.28;;
12114;SDS011;6121;49.810;6.418;2022-12-11T14:10:21;2.40;;;2.30;;
12114;SDS011;6121;49.810;6.418;2022-12-11T14:15:28;2.25;;;2.05;;
12114;SDS011;6121;49.810;6.418;2022-12-11T14:17:55;2.28;;;2.17;;
12114;SDS011;6121;49.810;6.418;2022-12-11T14:20:23;2.90;;;2.60;;
12114;SDS011;6121;49.810;6.418;2022-12-11T14:23:03;1.85;;;1.75;;
12114;SDS011;6121;49.810;6.418;2022-12-11T14:25:30;2.00;;;1.90;;
12114;SDS011;6121;49.810;6.418;2022-12-11T14:27:55;1.90;;;1.80;;
12114;SDS011;6121;49.810;6.418;2022-12-11T14:30:26;3.08;;;2.60;;
12114;SDS011;6121;49.810;6.418;2022-12-11T14:32:55;2.38;;;2.17;;
12114;SDS011;6121;49.810;6.418;2022-12-11T14:37:51;2.22;;;2.05;;
12114;SDS011;6121;49.810;6.418;2022-12-11T14:40:19;2.88;;;2.45;;
12114;SDS011;6121;49.810;6.418;2022-12-11T14:42:50;2.90;;;2.22;;
12114;SDS011;6121;49.810;6.418;2022-12-11T14:47:56;2.58;;;2.33;;
12114;SDS011;6121;49.810;6.418;2022-12-11T14:50:25;2.70;;;2.50;;
12114;SDS011;6121;49.810;6.418;2022-12-11T14:53:04;1.77;;;1.67;;
12114;SDS011;6121;49.810;6.418;2022-12-11T14:55:36;4.13;;;2.22;;
12114;SDS011;6121;49.810;6.418;2022-12-11T14:58:05;2.83;;;2.13;;
12114;SDS011;6121;49.810;6.418;2022-12-11T15:00:39;3.38;;;3.08;;
12114;SDS011;6121;49.810;6.418;2022-12-11T15:03:29;2.53;;;2.33;;
12114;SDS011;6121;49.810;6.418;2022-12-11T15:05:55;3.05;;;2.15;;
12114;SDS011;6121;49.810;6.418;2022-12-11T15:08:25;2.38;;;2.17;;
12114;SDS011;6121;49.810;6.418;2022-12-11T15:11:06;2.00;;;1.90;;
12114;SDS011;6121;49.810;6.418;2022-12-11T15:13:34;2.55;;;2.30;;
12114;SDS011;6121;49.810;6.418;2022-12-11T15:16:17;2.13;;;1.92;;
12114;SDS011;6121;49.810;6.418;2022-12-11T15:18:46;3.10;;;2.33;;
12114;SDS011;6121;49.810;6.418;2022-12-11T15:21:14;3.00;;;2.35;;
12114;SDS011;6121;49.810;6.418;2022-12-11T15:26:08;4.18;;;2.33;;
12114;SDS011;6121;49.810;6.418;2022-12-11T15:28:35;2.28;;;2.17;;
12114;SDS011;6121;49.810;6.418;2022-12-11T15:31:04;2.22;;;2.13;;
12114;SDS011;6121;49.810;6.418;2022-12-11T15:33:32;2.60;;;2.40;;
12114;SDS011;6121;49.810;6.418;2022-12-11T15:36:20;1.80;;;1.70;;
12114;SDS011;6121;49.810;6.418;2022-12-11T15:38:49;3.27;;;2.37;;
12114;SDS011;6121;49.810;6.418;2022-12-11T15:41:16;2.88;;;2.42;;
12114;SDS011;6121;49.810;6.418;2022-12-11T15:43:45;2.67;;;2.42;;
12114;SDS011;6121;49.810;6.418;2022-12-11T15:46:12;2.00;;;1.90;;
12114;SDS011;6121;49.810;6.418;2022-12-11T15:48:37;3.15;;;2.30;;
12114;SDS011;6121;49.810;6.418;2022-12-11T15:51:03;3.73;;;2.40;;
12114;SDS011;6121;49.810;6.418;2022-12-11T15:53:29;4.97;;;2.37;;
12114;SDS011;6121;49.810;6.418;2022-12-11T15:55:55;3.28;;;2.20;;
12114;SDS011;6121;49.810;6.418;2022-12-11T15:58:22;2.67;;;2.10;;
12114;SDS011;6121;49.810;6.418;2022-12-11T16:00:49;6.82;;;2.97;;
12114;SDS011;6121;49.810;6.418;2022-12-11T16:03:22;2.93;;;2.74;;
12114;SDS011;6121;49.810;6.418;2022-12-11T16:05:49;2.80;;;2.47;;
12114;SDS011;6121;49.810;6.418;2022-12-11T16:08:16;2.38;;;2.22;;
12114;SDS011;6121;49.810;6.418;2022-12-11T16:10:44;2.80;;;2.65;;
12114;SDS011;6121;49.810;6.418;2022-12-11T16:13:11;2.05;;;1.88;;
12114;SDS011;6121;49.810;6.418;2022-12-11T16:15:38;2.95;;;2.30;;
12114;SDS011;6121;49.810;6.418;2022-12-11T16:18:09;1.90;;;1.80;;
12114;SDS011;6121;49.810;6.418;2022-12-11T16:20:40;3.05;;;2.85;;
12114;SDS011;6121;49.810;6.418;2022-12-11T16:23:07;2.47;;;2.28;;
12114;SDS011;6121;49.810;6.418;2022-12-11T16:25:35;2.90;;;2.60;;
12114;SDS011;6121;49.810;6.418;2022-12-11T16:28:02;5.50;;;2.57;;
12114;SDS011;6121;49.810;6.418;2022-12-11T16:30:28;2.90;;;2.70;;
12114;SDS011;6121;49.810;6.418;2022-12-11T16:32:54;2.83;;;2.63;;
12114;SDS011;6121;49.810;6.418;2022-12-11T16:35:20;2.67;;;2.25;;
12114;SDS011;6121;49.810;6.418;2022-12-11T16:37:50;2.60;;;2.40;;
12114;SDS011;6121;49.810;6.418;2022-12-11T16:40:16;2.05;;;1.85;;
12114;SDS011;6121;49.810;6.418;2022-12-11T16:42:42;2.30;;;2.20;;
12114;SDS011;6121;49.810;6.418;2022-12-11T16:45:16;2.60;;;1.87;;
12114;SDS011;6121;49.810;6.418;2022-12-11T16:47:43;3.92;;;3.28;;
12114;SDS011;6121;49.810;6.418;2022-12-11T16:50:10;1.80;;;1.70;;